sensor_id;sensor_type;location;lat;lon;timestamp;P1;durP1;ratioP1;P2;durP2;ratioP2
5191;SDS011;2615;44.524;11.284;2022-07-22T09:44:21;13.53;;;8.37;;
5191;SDS011;2615;44.524;11.284;2022-07-22T09:46:50;12.70;;;7.17;;
5191;SDS011;2615;44.524;11.284;2022-07-22T09:49:29;10.63;;;7.10;;
5191;SDS011;2615;44.524;11.284;2022-07-22T09:51:58;8.50;;;7.13;;
5191;SDS011;2615;44.524;11.284;2022-07-22T09:54:28;12.40;;;7.10;;
5191;SDS011;2615;44.524;11.284;2022-07-22T09:56:56;8.40;;;6.50;;
5191;SDS011;2615;44.524;11.284;2022-07-22T09:59:27;9.87;;;7.73;;
5191;SDS011;2615;44.524;11.284;2022-07-22T10:01:55;7.87;;;7.17;;
5191;SDS011;2615;44.524;11.284;2022-07-22T10:04:26;8.90;;;6.87;;
5191;SDS011;2615;44.524;11.284;2022-07-22T10:06:58;11.10;;;7.40;;
5191;SDS011;2615;44.524;11.284;2022-07-22T10:09:27;10.83;;;7.43;;
5191;SDS011;2615;44.524;11.284;2022-07-22T10:11:57;11.20;;;6.90;;
5191;SDS011;2615;44.524;11.284;2022-07-22T10:14:27;9.47;;;7.90;;
5191;SDS011;2615;44.524;11.284;2022-07-22T10:16:56;13.50;;;8.10;;
5191;SDS011;2615;44.524;11.284;2022-07-22T10:19:32;15.63;;;7.40;;
5191;SDS011;2615;44.524;11.284;2022-07-22T10:22:01;9.40;;;8.40;;
5191;SDS011;2615;44.524;11.284;2022-07-22T10:24:29;11.27;;;7.87;;
5191;SDS011;2615;44.524;11.284;2022-07-22T10:26:57;13.40;;;7.97;;
5191;SDS011;2615;44.524;11.284;2022-07-22T10:29:30;14.00;;;7.93;;
5191;SDS011;2615;44.524;11.284;2022-07-22T10:37:58;9.10;;;7.57;;
5191;SDS011;2615;44.524;11.284;2022-07-22T10:40:28;13.50;;;8.23;;
5191;SDS011;2615;44.524;11.284;2022-07-22T10:43:03;10.90;;;8.13;;
5191;SDS011;2615;44.524;11.284;2022-07-22T10:45:35;9.33;;;8.43;;
5191;SDS011;2615;44.524;11.284;2022-07-22T10:48:06;12.13;;;7.97;;
5191;SDS011;2615;44.524;11.284;2022-07-22T10:50:53;21.63;;;8.70;;
5191;SDS011;2615;44.524;11.284;2022-07-22T10:53:45;11.80;;;8.70;;
5191;SDS011;2615;44.524;11.284;2022-07-22T10:56:16;11.30;;;9.63;;
5191;SDS011;2615;44.524;11.284;2022-07-22T10:58:52;16.07;;;9.00;;
5191;SDS011;2615;44.524;11.284;2022-07-22T11:01:24;10.07;;;8.30;;
5191;SDS011;2615;44.524;11.284;2022-07-22T11:04:06;9.37;;;8.47;;
5191;SDS011;2615;44.524;11.284;2022-07-22T11:06:44;10.17;;;7.37;;
5191;SDS011;2615;44.524;11.284;2022-07-22T11:09:13;10.50;;;8.43;;
5191;SDS011;2615;44.524;11.284;2022-07-22T11:11:43;10.47;;;8.10;;
5191;SDS011;2615;44.524;11.284;2022-07-22T11:14:14;9.10;;;8.17;;
5191;SDS011;2615;44.524;11.284;2022-07-22T11:16:46;8.23;;;7.47;;
5191;SDS011;2615;44.524;11.284;2022-07-22T11:19:19;10.00;;;7.77;;
5191;SDS011;2615;44.524;11.284;2022-07-22T11:21:49;10.53;;;8.17;;
5191;SDS011;2615;44.524;11.284;2022-07-22T11:24:19;11.47;;;7.13;;
5191;SDS011;2615;44.524;11.284;2022-07-22T11:26:48;8.30;;;7.60;;
5191;SDS011;2615;44.524;11.284;2022-07-22T11:29:23;12.70;;;8.33;;
5191;SDS011;2615;44.524;11.284;2022-07-22T11:31:54;11.73;;;6.93;;
5191;SDS011;2615;44.524;11.284;2022-07-22T11:34:25;8.77;;;8.00;;
5191;SDS011;2615;44.524;11.284;2022-07-22T11:36:55;13.07;;;8.20;;
5191;SDS011;2615;44.524;11.284;2022-07-22T11:39:25;9.60;;;7.27;;
5191;SDS011;2615;44.524;11.284;2022-07-22T11:41:55;8.43;;;7.73;;
5191;SDS011;2615;44.524;11.284;2022-07-22T11:44:26;8.47;;;7.60;;
5191;SDS011;2615;44.524;11.284;2022-07-22T11:46:57;10.10;;;7.97;;
5191;SDS011;2615;44.524;11.284;2022-07-22T11:49:27;8.70;;;7.80;;
5191;SDS011;2615;44.524;11.284;2022-07-22T11:51:59;8.00;;;7.23;;
5191;SDS011;2615;44.524;11.284;2022-07-22T11:54:28;9.77;;;8.00;;
5191;SDS011;2615;44.524;11.284;2022-07-22T11:56:56;8.53;;;7.73;;
5191;SDS011;2615;44.524;11.284;2022-07-22T11:59:24;14.30;;;7.33;;
5191;SDS011;2615;44.524;11.284;2022-07-22T12:01:52;10.13;;;7.67;;
5191;SDS011;2615;44.524;11.284;2022-07-22T12:04:23;12.30;;;7.93;;
5191;SDS011;2615;44.524;11.284;2022-07-22T12:06:52;8.60;;;6.90;;
5191;SDS011;2615;44.524;11.284;2022-07-22T12:09:22;9.30;;;7.00;;
5191;SDS011;2615;44.524;11.284;2022-07-22T12:11:52;11.97;;;6.50;;
5191;SDS011;2615;44.524;11.284;2022-07-22T12:14:25;9.90;;;7.83;;
5191;SDS011;2615;44.524;11.284;2022-07-22T12:16:55;8.03;;;7.33;;
5191;SDS011;2615;44.524;11.284;2022-07-22T12:19:28;10.03;;;6.13;;
5191;SDS011;2615;44.524;11.284;2022-07-22T12:21:59;8.07;;;6.43;;
5191;SDS011;2615;44.524;11.284;2022-07-22T12:24:30;9.67;;;6.90;;
5191;SDS011;2615;44.524;11.284;2022-07-22T12:27:00;9.20;;;7.03;;
5191;SDS011;2615;44.524;11.284;2022-07-22T12:29:30;7.90;;;7.13;;
5191;SDS011;2615;44.524;11.284;2022-07-22T12:32:09;7.77;;;6.50;;
5191;SDS011;2615;44.524;11.284;2022-07-22T12:34:40;19.90;;;7.27;;
5191;SDS011;2615;44.524;11.284;2022-07-22T12:37:11;7.50;;;6.30;;
5191;SDS011;2615;44.524;11.284;2022-07-22T12:39:52;7.63;;;6.57;;
5191;SDS011;2615;44.524;11.284;2022-07-22T12:42:24;10.50;;;6.83;;
5191;SDS011;2615;44.524;11.284;2022-07-22T12:44:54;7.37;;;6.10;;
5191;SDS011;2615;44.524;11.284;2022-07-22T12:47:40;8.53;;;6.20;;
5191;SDS011;2615;44.524;11.284;2022-07-22T12:50:17;6.33;;;5.73;;
5191;SDS011;2615;44.524;11.284;2022-07-22T12:52:46;8.33;;;6.93;;
5191;SDS011;2615;44.524;11.284;2022-07-22T12:55:36;7.83;;;7.03;;
5191;SDS011;2615;44.524;11.284;2022-07-22T12:58:05;9.97;;;7.13;;
5191;SDS011;2615;44.524;11.284;2022-07-22T13:00:35;13.47;;;7.33;;
5191;SDS011;2615;44.524;11.284;2022-07-22T13:03:06;9.93;;;7.20;;
5191;SDS011;2615;44.524;11.284;2022-07-22T13:05:36;9.57;;;7.00;;
5191;SDS011;2615;44.524;11.284;2022-07-22T13:08:04;7.23;;;6.53;;
5191;SDS011;2615;44.524;11.284;2022-07-22T13:10:35;11.03;;;7.07;;
5191;SDS011;2615;44.524;11.284;2022-07-22T13:13:04;7.17;;;6.33;;
5191;SDS011;2615;44.524;11.284;2022-07-22T13:15:33;7.90;;;7.10;;
5191;SDS011;2615;44.524;11.284;2022-07-22T13:18:02;8.47;;;6.80;;
5191;SDS011;2615;44.524;11.284;2022-07-22T13:20:31;11.70;;;6.87;;
5191;SDS011;2615;44.524;11.284;2022-07-22T13:23:01;13.80;;;7.83;;
5191;SDS011;2615;44.524;11.284;2022-07-22T13:36:33;7.70;;;7.00;;
5191;SDS011;2615;44.524;11.284;2022-07-22T13:39:03;7.90;;;6.70;;
5191;SDS011;2615;44.524;11.284;2022-07-22T13:41:32;7.80;;;7.00;;
5191;SDS011;2615;44.524;11.284;2022-07-22T13:44:00;14.37;;;7.40;;
5191;SDS011;2615;44.524;11.284;2022-07-22T13:46:35;12.43;;;6.70;;
5191;SDS011;2615;44.524;11.284;2022-07-22T13:49:04;7.43;;;6.70;;
5191;SDS011;2615;44.524;11.284;2022-07-22T13:51:32;13.63;;;7.03;;
5191;SDS011;2615;44.524;11.284;2022-07-22T13:54:00;8.33;;;7.37;;
5191;SDS011;2615;44.524;11.284;2022-07-22T13:56:31;11.10;;;6.63;;
5191;SDS011;2615;44.524;11.284;2022-07-22T13:58:59;10.60;;;6.70;;
5191;SDS011;2615;44.524;11.284;2022-07-22T14:01:28;8.47;;;6.47;;
5191;SDS011;2615;44.524;11.284;2022-07-22T14:03:58;7.10;;;6.40;;
5191;SDS011;2615;44.524;11.284;2022-07-22T14:06:27;7.70;;;6.90;;
5191;SDS011;2615;44.524;11.284;2022-07-22T14:08:55;11.70;;;7.13;;
5191;SDS011;2615;44.524;11.284;2022-07-22T14:11:24;10.37;;;6.80;;
5191;SDS011;2615;44.524;11.284;2022-07-22T14:13:53;12.73;;;6.73;;
5191;SDS011;2615;44.524;11.284;2022-07-22T14:16:21;9.27;;;6.80;;
5191;SDS011;2615;44.524;11.284;2022-07-22T14:19:21;11.60;;;6.90;;
5191;SDS011;2615;44.524;11.284;2022-07-22T14:21:51;9.17;;;7.20;;
5191;SDS011;2615;44.524;11.284;2022-07-22T14:24:19;8.23;;;7.10;;
5191;SDS011;2615;44.524;11.284;2022-07-22T14:26:50;8.60;;;7.60;;
5191;SDS011;2615;44.524;11.284;2022-07-22T14:29:18;14.87;;;8.00;;
5191;SDS011;2615;44.524;11.284;2022-07-22T14:31:48;10.20;;;6.70;;
5191;SDS011;2615;44.524;11.284;2022-07-22T14:34:16;13.30;;;7.67;;
5191;SDS011;2615;44.524;11.284;2022-07-22T14:36:45;15.57;;;7.60;;
5191;SDS011;2615;44.524;11.284;2022-07-22T14:39:14;10.03;;;7.33;;
5191;SDS011;2615;44.524;11.284;2022-07-22T14:41:42;7.97;;;7.10;;
5191;SDS011;2615;44.524;11.284;2022-07-22T14:44:13;7.80;;;7.00;;
5191;SDS011;2615;44.524;11.284;2022-07-22T14:46:42;8.47;;;7.60;;
5191;SDS011;2615;44.524;11.284;2022-07-22T14:49:10;9.83;;;8.00;;
5191;SDS011;2615;44.524;11.284;2022-07-22T14:51:41;10.10;;;7.40;;
5191;SDS011;2615;44.524;11.284;2022-07-22T14:54:09;9.87;;;7.30;;
5191;SDS011;2615;44.524;11.284;2022-07-22T14:56:38;7.97;;;7.17;;
5191;SDS011;2615;44.524;11.284;2022-07-22T14:59:06;14.10;;;6.73;;
5191;SDS011;2615;44.524;11.284;2022-07-22T15:01:36;12.43;;;7.23;;
5191;SDS011;2615;44.524;11.284;2022-07-22T15:04:04;13.73;;;7.70;;
5191;SDS011;2615;44.524;11.284;2022-07-22T15:06:33;8.20;;;7.40;;
5191;SDS011;2615;44.524;11.284;2022-07-22T15:09:01;13.73;;;6.30;;
5191;SDS011;2615;44.524;11.284;2022-07-22T15:11:29;12.53;;;7.50;;
5191;SDS011;2615;44.524;11.284;2022-07-22T15:13:57;15.63;;;7.20;;
5191;SDS011;2615;44.524;11.284;2022-07-22T15:16:27;17.13;;;7.23;;
5191;SDS011;2615;44.524;11.284;2022-07-22T15:18:56;8.60;;;7.50;;
5191;SDS011;2615;44.524;11.284;2022-07-22T15:21:24;11.80;;;7.50;;
5191;SDS011;2615;44.524;11.284;2022-07-22T15:23:57;7.90;;;7.10;;
5191;SDS011;2615;44.524;11.284;2022-07-22T15:26:26;9.23;;;7.30;;
5191;SDS011;2615;44.524;11.284;2022-07-22T15:28:55;8.30;;;7.33;;
5191;SDS011;2615;44.524;11.284;2022-07-22T15:31:24;9.70;;;7.60;;
5191;SDS011;2615;44.524;11.284;2022-07-22T15:33:54;12.43;;;7.00;;
5191;SDS011;2615;44.524;11.284;2022-07-22T15:36:25;10.23;;;7.07;;
5191;SDS011;2615;44.524;11.284;2022-07-22T15:38:53;9.63;;;7.67;;
5191;SDS011;2615;44.524;11.284;2022-07-22T15:41:26;12.90;;;8.30;;
5191;SDS011;2615;44.524;11.284;2022-07-22T15:43:55;8.97;;;7.43;;
5191;SDS011;2615;44.524;11.284;2022-07-22T15:46:23;10.00;;;6.83;;
5191;SDS011;2615;44.524;11.284;2022-07-22T15:48:51;9.03;;;7.17;;
5191;SDS011;2615;44.524;11.284;2022-07-22T15:51:21;9.77;;;6.90;;
5191;SDS011;2615;44.524;11.284;2022-07-22T15:53:50;8.07;;;7.27;;
5191;SDS011;2615;44.524;11.284;2022-07-22T15:56:18;10.83;;;7.83;;
5191;SDS011;2615;44.524;11.284;2022-07-22T15:58:46;12.30;;;7.63;;
5191;SDS011;2615;44.524;11.284;2022-07-22T16:01:52;14.50;;;7.60;;
5191;SDS011;2615;44.524;11.284;2022-07-22T16:04:20;8.30;;;7.53;;
5191;SDS011;2615;44.524;11.284;2022-07-22T16:06:50;8.67;;;7.80;;
5191;SDS011;2615;44.524;11.284;2022-07-22T16:09:20;7.33;;;6.60;;
5191;SDS011;2615;44.524;11.284;2022-07-22T16:11:53;12.50;;;8.03;;
5191;SDS011;2615;44.524;11.284;2022-07-22T16:14:21;11.50;;;8.07;;
5191;SDS011;2615;44.524;11.284;2022-07-22T16:16:50;12.50;;;7.67;;
5191;SDS011;2615;44.524;11.284;2022-07-22T16:19:19;10.70;;;6.90;;
5191;SDS011;2615;44.524;11.284;2022-07-22T16:21:47;13.20;;;7.37;;
5191;SDS011;2615;44.524;11.284;2022-07-22T16:24:17;12.20;;;7.20;;
5191;SDS011;2615;44.524;11.284;2022-07-22T16:26:45;12.63;;;7.73;;
5191;SDS011;2615;44.524;11.284;2022-07-22T16:29:13;8.03;;;7.23;;
5191;SDS011;2615;44.524;11.284;2022-07-22T16:31:41;7.37;;;6.67;;
5191;SDS011;2615;44.524;11.284;2022-07-22T16:34:10;7.87;;;7.07;;
5191;SDS011;2615;44.524;11.284;2022-07-22T16:36:38;8.40;;;7.00;;
5191;SDS011;2615;44.524;11.284;2022-07-22T16:39:07;10.90;;;7.20;;
5191;SDS011;2615;44.524;11.284;2022-07-22T16:41:37;10.20;;;7.57;;
5191;SDS011;2615;44.524;11.284;2022-07-22T16:44:05;11.90;;;7.60;;
5191;SDS011;2615;44.524;11.284;2022-07-22T16:46:33;8.77;;;7.30;;
5191;SDS011;2615;44.524;11.284;2022-07-22T16:49:02;14.37;;;7.80;;
5191;SDS011;2615;44.524;11.284;2022-07-22T16:51:30;8.57;;;7.33;;
5191;SDS011;2615;44.524;11.284;2022-07-22T16:53:58;8.20;;;7.40;;
5191;SDS011;2615;44.524;11.284;2022-07-22T16:56:28;12.50;;;8.80;;
5191;SDS011;2615;44.524;11.284;2022-07-22T16:58:56;14.03;;;9.17;;
5191;SDS011;2615;44.524;11.284;2022-07-22T17:01:25;10.13;;;8.70;;
5191;SDS011;2615;44.524;11.284;2022-07-22T17:03:53;9.60;;;7.97;;
5191;SDS011;2615;44.524;11.284;2022-07-22T17:06:22;8.80;;;7.90;;
5191;SDS011;2615;44.524;11.284;2022-07-22T17:08:50;13.43;;;8.67;;
5191;SDS011;2615;44.524;11.284;2022-07-22T17:11:18;9.63;;;8.70;;
5191;SDS011;2615;44.524;11.284;2022-07-22T17:13:47;21.23;;;9.17;;
5191;SDS011;2615;44.524;11.284;2022-07-22T17:16:17;13.40;;;8.20;;
5191;SDS011;2615;44.524;11.284;2022-07-22T17:18:45;43.60;;;11.30;;
5191;SDS011;2615;44.524;11.284;2022-07-22T17:21:13;10.20;;;8.70;;
5191;SDS011;2615;44.524;11.284;2022-07-22T17:23:42;17.27;;;9.17;;
